sensor_id;sensor_type;location;lat;lon;timestamp;pressure;altitude;pressure_sealevel;temperature;humidity
67738;BME280;54534;43.612;1.572;2023-05-19T00:02:09;99505.72;;;18.66;48.57
67738;BME280;54534;43.612;1.572;2023-05-19T00:04:34;99503.06;;;18.66;48.83
67738;BME280;54534;43.612;1.572;2023-05-19T00:07:01;99511.06;;;18.66;48.99
67738;BME280;54534;43.612;1.572;2023-05-19T00:09:27;99503.06;;;18.66;48.73
67738;BME280;54534;43.612;1.572;2023-05-19T00:11:53;99500.41;;;18.66;48.79
67738;BME280;54534;43.612;1.572;2023-05-19T00:14:19;99500.53;;;18.64;48.67
67738;BME280;54534;43.612;1.572;2023-05-19T00:16:44;99498.72;;;18.65;48.34
67738;BME280;54534;43.612;1.572;2023-05-19T00:19:10;99499.69;;;18.64;48.69
67738;BME280;54534;43.612;1.572;2023-05-19T00:21:36;99496.16;;;18.63;48.37
67738;BME280;54534;43.612;1.572;2023-05-19T00:24:05;99499.69;;;18.64;48.43
67738;BME280;54534;43.612;1.572;2023-05-19T00:26:30;99505.00;;;18.64;48.33
67738;BME280;54534;43.612;1.572;2023-05-19T00:28:56;99505.97;;;18.63;48.67
67738;BME280;54534;43.612;1.572;2023-05-19T00:31:21;99501.63;;;18.62;48.53
67738;BME280;54534;43.612;1.572;2023-05-19T00:33:46;99504.28;;;18.62;48.63
67738;BME280;54534;43.612;1.572;2023-05-19T00:36:12;99497.25;;;18.61;48.46
67738;BME280;54534;43.612;1.572;2023-05-19T00:38:38;99503.41;;;18.61;48.31
67738;BME280;54534;43.612;1.572;2023-05-19T00:41:04;99500.75;;;18.61;48.46
67738;BME280;54534;43.612;1.572;2023-05-19T00:43:31;99495.44;;;18.61;48.36
67738;BME280;54534;43.612;1.572;2023-05-19T00:45:58;99495.56;;;18.60;48.35
67738;BME280;54534;43.612;1.572;2023-05-19T00:48:24;99500.88;;;18.60;48.37
67738;BME280;54534;43.612;1.572;2023-05-19T00:50:55;99491.19;;;18.59;48.61
67738;BME280;54534;43.612;1.572;2023-05-19T00:53:26;99485.88;;;18.59;48.34
67738;BME280;54534;43.612;1.572;2023-05-19T00:55:52;99482.34;;;18.58;48.30
67738;BME280;54534;43.612;1.572;2023-05-19T00:58:18;99490.34;;;18.58;48.61
67738;BME280;54534;43.612;1.572;2023-05-19T01:00:44;99480.53;;;18.59;48.70
67738;BME280;54534;43.612;1.572;2023-05-19T01:03:09;99474.34;;;18.58;48.58
67738;BME280;54534;43.612;1.572;2023-05-19T01:05:41;99475.22;;;18.59;48.68
67738;BME280;54534;43.612;1.572;2023-05-19T01:08:07;99470.00;;;18.57;48.72
67738;BME280;54534;43.612;1.572;2023-05-19T01:10:33;99467.34;;;18.57;48.67
67738;BME280;54534;43.612;1.572;2023-05-19T01:12:59;99469.16;;;18.56;48.88
67738;BME280;54534;43.612;1.572;2023-05-19T01:15:25;99471.81;;;18.56;48.69
67738;BME280;54534;43.612;1.572;2023-05-19T01:18:05;99458.50;;;18.56;48.42
67738;BME280;54534;43.612;1.572;2023-05-19T01:20:38;99462.97;;;18.56;48.61
67738;BME280;54534;43.612;1.572;2023-05-19T01:30:57;99456.06;;;18.53;48.38
67738;BME280;54534;43.612;1.572;2023-05-19T01:33:25;99456.06;;;18.53;48.73
67738;BME280;54534;43.612;1.572;2023-05-19T01:35:52;99458.88;;;18.52;48.43
67738;BME280;54534;43.612;1.572;2023-05-19T01:38:20;99454.41;;;18.52;48.64
67738;BME280;54534;43.612;1.572;2023-05-19T01:40:47;99450.75;;;18.53;48.86
67738;BME280;54534;43.612;1.572;2023-05-19T01:43:19;99456.06;;;18.53;48.92
67738;BME280;54534;43.612;1.572;2023-05-19T01:45:45;99444.56;;;18.53;48.83
67738;BME280;54534;43.612;1.572;2023-05-19T01:48:11;99449.06;;;18.52;48.64
67738;BME280;54534;43.612;1.572;2023-05-19T01:50:38;99448.22;;;18.52;48.68
67738;BME280;54534;43.612;1.572;2023-05-19T01:53:04;99449.06;;;18.52;48.53
67738;BME280;54534;43.612;1.572;2023-05-19T01:55:30;99448.22;;;18.52;48.49
67738;BME280;54534;43.612;1.572;2023-05-19T02:11:55;99428.00;;;18.49;48.83
67738;BME280;54534;43.612;1.572;2023-05-19T02:17:13;99435.25;;;18.47;48.49
67738;BME280;54534;43.612;1.572;2023-05-19T02:19:42;99430.75;;;18.48;48.69
67738;BME280;54534;43.612;1.572;2023-05-19T02:22:08;99429.94;;;18.47;48.34
67738;BME280;54534;43.612;1.572;2023-05-19T02:24:33;99438.75;;;18.48;48.69
67738;BME280;54534;43.612;1.572;2023-05-19T02:26:59;99429.09;;;18.47;48.38
67738;BME280;54534;43.612;1.572;2023-05-19T02:29:24;99424.59;;;18.47;48.63
67738;BME280;54534;43.612;1.572;2023-05-19T02:31:50;99424.59;;;18.47;48.35
67738;BME280;54534;43.612;1.572;2023-05-19T02:34:15;99421.09;;;18.47;48.83
67738;BME280;54534;43.612;1.572;2023-05-19T02:36:41;99417.56;;;18.46;48.25
67738;BME280;54534;43.612;1.572;2023-05-19T02:39:10;99421.94;;;18.47;48.46
67738;BME280;54534;43.612;1.572;2023-05-19T02:41:36;99422.03;;;18.45;48.32
67738;BME280;54534;43.612;1.572;2023-05-19T02:44:02;99418.53;;;18.45;48.50
67738;BME280;54534;43.612;1.572;2023-05-19T02:46:27;99417.56;;;18.46;48.35
67738;BME280;54534;43.612;1.572;2023-05-19T02:48:52;99415.88;;;18.45;48.70
67738;BME280;54534;43.612;1.572;2023-05-19T02:51:18;99414.06;;;18.45;48.40
67738;BME280;54534;43.612;1.572;2023-05-19T02:53:43;99414.06;;;18.45;48.62
67738;BME280;54534;43.612;1.572;2023-05-19T02:56:08;99413.22;;;18.45;48.72
67738;BME280;54534;43.612;1.572;2023-05-19T02:58:34;99408.72;;;18.45;48.71
67738;BME280;54534;43.612;1.572;2023-05-19T03:00:59;99414.06;;;18.45;48.47
67738;BME280;54534;43.612;1.572;2023-05-19T03:03:25;99415.88;;;18.45;48.73
67738;BME280;54534;43.612;1.572;2023-05-19T03:05:51;99415.03;;;18.44;48.65
67738;BME280;54534;43.612;1.572;2023-05-19T03:08:18;99416.00;;;18.43;48.74
67738;BME280;54534;43.612;1.572;2023-05-19T03:10:44;99411.53;;;18.44;48.39
67738;BME280;54534;43.612;1.572;2023-05-19T03:13:10;99408.88;;;18.44;48.33
67738;BME280;54534;43.612;1.572;2023-05-19T03:15:35;99408.88;;;18.44;48.69
67738;BME280;54534;43.612;1.572;2023-05-19T03:18:01;99404.50;;;18.43;48.64
67738;BME280;54534;43.612;1.572;2023-05-19T03:20:26;99402.81;;;18.42;48.35
67738;BME280;54534;43.612;1.572;2023-05-19T03:22:51;99400.97;;;18.42;48.52
67738;BME280;54534;43.612;1.572;2023-05-19T03:25:17;99405.47;;;18.42;48.31
67738;BME280;54534;43.612;1.572;2023-05-19T03:27:42;99402.81;;;18.42;48.12
67738;BME280;54534;43.612;1.572;2023-05-19T03:30:08;99400.97;;;18.42;48.28
67738;BME280;54534;43.612;1.572;2023-05-19T03:32:33;99398.31;;;18.42;48.58
67738;BME280;54534;43.612;1.572;2023-05-19T03:35:05;99405.47;;;18.42;48.29
67738;BME280;54534;43.612;1.572;2023-05-19T03:37:31;99393.97;;;18.41;48.52
67738;BME280;54534;43.612;1.572;2023-05-19T03:39:59;99400.16;;;18.42;48.36
67738;BME280;54534;43.612;1.572;2023-05-19T03:42:25;99404.63;;;18.41;48.34
67738;BME280;54534;43.612;1.572;2023-05-19T03:44:50;99406.44;;;18.41;48.64
67738;BME280;54534;43.612;1.572;2023-05-19T03:47:15;99401.09;;;18.41;48.39
67738;BME280;54534;43.612;1.572;2023-05-19T03:49:41;99408.25;;;18.40;48.24
67738;BME280;54534;43.612;1.572;2023-05-19T03:52:06;99400.38;;;18.39;48.59
67738;BME280;54534;43.612;1.572;2023-05-19T03:54:32;99406.44;;;18.41;48.39
67738;BME280;54534;43.612;1.572;2023-05-19T03:56:57;99404.72;;;18.40;48.32
67738;BME280;54534;43.612;1.572;2023-05-19T03:59:23;99403.91;;;18.39;48.69
67738;BME280;54534;43.612;1.572;2023-05-19T04:01:49;99396.75;;;18.40;48.39
67738;BME280;54534;43.612;1.572;2023-05-19T04:04:14;99387.94;;;18.39;48.37
67738;BME280;54534;43.612;1.572;2023-05-19T04:06:40;99392.41;;;18.39;48.50
67738;BME280;54534;43.612;1.572;2023-05-19T04:09:11;99395.91;;;18.39;48.42
67738;BME280;54534;43.612;1.572;2023-05-19T04:11:37;99390.59;;;18.39;48.63
67738;BME280;54534;43.612;1.572;2023-05-19T04:14:04;99402.19;;;18.38;48.52
67738;BME280;54534;43.612;1.572;2023-05-19T04:16:29;99399.53;;;18.38;48.19
67738;BME280;54534;43.612;1.572;2023-05-19T04:18:54;99398.69;;;18.38;48.59
67738;BME280;54534;43.612;1.572;2023-05-19T04:21:21;99395.06;;;18.39;48.09
67738;BME280;54534;43.612;1.572;2023-05-19T04:23:46;99402.19;;;18.38;48.47
67738;BME280;54534;43.612;1.572;2023-05-19T04:26:12;99406.66;;;18.38;48.39
67738;BME280;54534;43.612;1.572;2023-05-19T04:28:39;99408.38;;;18.39;48.25
67738;BME280;54534;43.612;1.572;2023-05-19T04:31:06;99402.28;;;18.37;48.01
67738;BME280;54534;43.612;1.572;2023-05-19T04:33:35;99409.31;;;18.38;48.44
67738;BME280;54534;43.612;1.572;2023-05-19T04:36:01;99410.28;;;18.37;48.53
67738;BME280;54534;43.612;1.572;2023-05-19T04:38:29;99404.94;;;18.37;48.11
67738;BME280;54534;43.612;1.572;2023-05-19T04:40:55;99408.47;;;18.37;48.56
67738;BME280;54534;43.612;1.572;2023-05-19T04:43:21;99404.94;;;18.37;48.18
67738;BME280;54534;43.612;1.572;2023-05-19T04:45:47;99404.94;;;18.37;48.13
67738;BME280;54534;43.612;1.572;2023-05-19T04:48:14;99410.28;;;18.37;48.47
67738;BME280;54534;43.612;1.572;2023-05-19T04:50:40;99407.63;;;18.37;48.50
67738;BME280;54534;43.612;1.572;2023-05-19T04:53:08;99406.78;;;18.36;48.35
67738;BME280;54534;43.612;1.572;2023-05-19T04:55:33;99400.63;;;18.36;48.26
67738;BME280;54534;43.612;1.572;2023-05-19T04:57:59;99405.94;;;18.36;48.09
67738;BME280;54534;43.612;1.572;2023-05-19T05:00:24;99412.13;;;18.36;48.49
67738;BME280;54534;43.612;1.572;2023-05-19T05:02:50;99404.22;;;18.34;48.46
67738;BME280;54534;43.612;1.572;2023-05-19T05:05:15;99406.88;;;18.34;48.41
67738;BME280;54534;43.612;1.572;2023-05-19T05:07:41;99406.88;;;18.34;48.47
67738;BME280;54534;43.612;1.572;2023-05-19T05:10:07;99412.13;;;18.36;48.12
67738;BME280;54534;43.612;1.572;2023-05-19T05:12:34;99413.06;;;18.35;48.41
67738;BME280;54534;43.612;1.572;2023-05-19T05:15:00;99404.22;;;18.34;48.28
67738;BME280;54534;43.612;1.572;2023-05-19T05:17:25;99398.06;;;18.34;48.26
67738;BME280;54534;43.612;1.572;2023-05-19T05:19:52;99403.38;;;18.34;48.43
67738;BME280;54534;43.612;1.572;2023-05-19T05:22:18;99403.38;;;18.34;48.27
67738;BME280;54534;43.612;1.572;2023-05-19T05:24:44;99409.69;;;18.33;48.64
67738;BME280;54534;43.612;1.572;2023-05-19T05:27:10;99403.38;;;18.34;48.00
67738;BME280;54534;43.612;1.572;2023-05-19T05:29:35;99407.88;;;18.33;48.28
67738;BME280;54534;43.612;1.572;2023-05-19T05:32:01;99412.22;;;18.34;48.23
67738;BME280;54534;43.612;1.572;2023-05-19T05:34:26;99413.19;;;18.33;48.48
67738;BME280;54534;43.612;1.572;2023-05-19T05:36:52;99412.34;;;18.33;48.47
67738;BME280;54534;43.612;1.572;2023-05-19T05:39:17;99422.00;;;18.34;48.18
67738;BME280;54534;43.612;1.572;2023-05-19T05:41:43;99413.19;;;18.33;48.25
67738;BME280;54534;43.612;1.572;2023-05-19T05:44:08;99405.22;;;18.33;48.40
67738;BME280;54534;43.612;1.572;2023-05-19T05:46:33;99410.53;;;18.33;48.21
67738;BME280;54534;43.612;1.572;2023-05-19T05:48:59;99407.03;;;18.33;48.50
67738;BME280;54534;43.612;1.572;2023-05-19T05:51:25;99420.31;;;18.33;48.74
67738;BME280;54534;43.612;1.572;2023-05-19T05:53:52;99424.81;;;18.32;48.51
67738;BME280;54534;43.612;1.572;2023-05-19T05:56:18;99418.53;;;18.33;48.42
67738;BME280;54534;43.612;1.572;2023-05-19T05:58:44;99424.81;;;18.32;48.65
67738;BME280;54534;43.612;1.572;2023-05-19T06:01:10;99418.63;;;18.32;48.62
67738;BME280;54534;43.612;1.572;2023-05-19T06:03:40;99419.47;;;18.32;48.60
67738;BME280;54534;43.612;1.572;2023-05-19T06:06:06;99422.13;;;18.32;48.66
67738;BME280;54534;43.612;1.572;2023-05-19T06:08:31;99423.00;;;18.33;48.64
67738;BME280;54534;43.612;1.572;2023-05-19T06:10:56;99422.13;;;18.32;48.26
67738;BME280;54534;43.612;1.572;2023-05-19T06:13:22;99419.47;;;18.32;48.33
67738;BME280;54534;43.612;1.572;2023-05-19T06:15:50;99417.66;;;18.33;48.39
67738;BME280;54534;43.612;1.572;2023-05-19T06:18:16;99412.44;;;18.31;48.68
67738;BME280;54534;43.612;1.572;2023-05-19T06:20:41;99411.50;;;18.32;48.26
67738;BME280;54534;43.612;1.572;2023-05-19T06:23:07;99415.09;;;18.31;48.43
67738;BME280;54534;43.612;1.572;2023-05-19T06:25:32;99421.28;;;18.32;48.41
67738;BME280;54534;43.612;1.572;2023-05-19T06:27:58;99421.28;;;18.32;48.44
67738;BME280;54534;43.612;1.572;2023-05-19T06:30:23;99422.13;;;18.32;48.58
67738;BME280;54534;43.612;1.572;2023-05-19T06:32:49;99424.81;;;18.32;48.72
67738;BME280;54534;43.612;1.572;2023-05-19T06:35:14;99423.00;;;18.33;48.47
67738;BME280;54534;43.612;1.572;2023-05-19T06:37:40;99423.09;;;18.31;48.46
67738;BME280;54534;43.612;1.572;2023-05-19T06:40:06;99420.44;;;18.31;48.45
67738;BME280;54534;43.612;1.572;2023-05-19T06:42:32;99426.59;;;18.32;48.44
67738;BME280;54534;43.612;1.572;2023-05-19T06:44:57;99425.75;;;18.31;48.73
67738;BME280;54534;43.612;1.572;2023-05-19T06:47:23;99423.00;;;18.33;48.30
67738;BME280;54534;43.612;1.572;2023-05-19T06:49:48;99415.09;;;18.31;48.78
67738;BME280;54534;43.612;1.572;2023-05-19T06:52:20;99417.75;;;18.31;48.49
67738;BME280;54534;43.612;1.572;2023-05-19T06:54:45;99415.97;;;18.32;48.79
67738;BME280;54534;43.612;1.572;2023-05-19T06:57:11;99414.16;;;18.32;48.69
67738;BME280;54534;43.612;1.572;2023-05-19T06:59:36;99418.53;;;18.33;48.85
67738;BME280;54534;43.612;1.572;2023-05-19T07:02:05;99422.13;;;18.32;48.78
67738;BME280;54534;43.612;1.572;2023-05-19T07:04:30;99424.81;;;18.32;48.55
67738;BME280;54534;43.612;1.572;2023-05-19T07:06:56;99422.13;;;18.32;48.78
67738;BME280;54534;43.612;1.572;2023-05-19T07:09:22;99415.97;;;18.32;48.70
67738;BME280;54534;43.612;1.572;2023-05-19T07:11:48;99423.00;;;18.33;48.93
67738;BME280;54534;43.612;1.572;2023-05-19T07:14:13;99419.47;;;18.32;48.48
67738;BME280;54534;43.612;1.572;2023-05-19T07:16:39;99423.00;;;18.33;48.69
67738;BME280;54534;43.612;1.572;2023-05-19T07:19:04;99422.13;;;18.32;48.58
67738;BME280;54534;43.612;1.572;2023-05-19T07:21:30;99423.09;;;18.31;48.56
67738;BME280;54534;43.612;1.572;2023-05-19T07:23:55;99430.13;;;18.32;48.71
67738;BME280;54534;43.612;1.572;2023-05-19T07:26:20;99431.06;;;18.31;48.86
67738;BME280;54534;43.612;1.572;2023-05-19T07:28:46;99431.94;;;18.32;48.71
67738;BME280;54534;43.612;1.572;2023-05-19T07:31:12;99434.59;;;18.32;49.04
67738;BME280;54534;43.612;1.572;2023-05-19T07:33:37;99431.94;;;18.32;48.45
67738;BME280;54534;43.612;1.572;2023-05-19T07:36:03;99443.44;;;18.32;48.75
67738;BME280;54534;43.612;1.572;2023-05-19T07:38:29;99436.41;;;18.31;48.44
67738;BME280;54534;43.612;1.572;2023-05-19T07:40:58;99449.72;;;18.31;48.45
67738;BME280;54534;43.612;1.572;2023-05-19T07:43:23;99452.38;;;18.31;48.27
67738;BME280;54534;43.612;1.572;2023-05-19T07:45:49;99454.22;;;18.31;48.33
67738;BME280;54534;43.612;1.572;2023-05-19T07:48:15;99460.34;;;18.31;48.50
67738;BME280;54534;43.612;1.572;2023-05-19T07:50:42;99459.53;;;18.31;48.31
67738;BME280;54534;43.612;1.572;2023-05-19T07:53:08;99456.88;;;18.31;48.52
67738;BME280;54534;43.612;1.572;2023-05-19T07:55:33;99455.88;;;18.32;48.40
67738;BME280;54534;43.612;1.572;2023-05-19T07:57:58;99458.69;;;18.30;48.74
67738;BME280;54534;43.612;1.572;2023-05-19T08:00:24;99459.53;;;18.31;48.72
67738;BME280;54534;43.612;1.572;2023-05-19T08:02:50;99453.34;;;18.30;48.38
67738;BME280;54534;43.612;1.572;2023-05-19T08:05:17;99453.34;;;18.30;48.60
67738;BME280;54534;43.612;1.572;2023-05-19T08:07:42;99443.56;;;18.31;48.44
67738;BME280;54534;43.612;1.572;2023-05-19T08:10:08;99445.38;;;18.30;48.41
67738;BME280;54534;43.612;1.572;2023-05-19T08:12:33;99446.22;;;18.31;48.50
67738;BME280;54534;43.612;1.572;2023-05-19T08:14:59;99448.03;;;18.30;48.43
67738;BME280;54534;43.612;1.572;2023-05-19T08:17:24;99445.38;;;18.30;48.74
67738;BME280;54534;43.612;1.572;2023-05-19T08:19:49;99446.31;;;18.29;48.57
67738;BME280;54534;43.612;1.572;2023-05-19T08:22:15;99447.31;;;18.28;48.61
67738;BME280;54534;43.612;1.572;2023-05-19T08:24:40;99452.50;;;18.30;48.52
67738;BME280;54534;43.612;1.572;2023-05-19T08:27:07;99443.66;;;18.29;48.73
67738;BME280;54534;43.612;1.572;2023-05-19T08:29:32;99453.34;;;18.30;48.46
67738;BME280;54534;43.612;1.572;2023-05-19T08:31:58;99450.69;;;18.30;48.58
67738;BME280;54534;43.612;1.572;2023-05-19T08:34:24;99455.16;;;18.30;48.49
67738;BME280;54534;43.612;1.572;2023-05-19T08:36:49;99451.66;;;18.29;48.24
67738;BME280;54534;43.612;1.572;2023-05-19T08:39:15;99443.66;;;18.29;48.55
67738;BME280;54534;43.612;1.572;2023-05-19T08:41:43;99446.31;;;18.29;48.39
67738;BME280;54534;43.612;1.572;2023-05-19T08:44:09;99445.59;;;18.27;48.33
67738;BME280;54534;43.612;1.572;2023-05-19T08:46:34;99444.66;;;18.28;48.60
67738;BME280;54534;43.612;1.572;2023-05-19T08:49:09;99447.31;;;18.28;48.25
67738;BME280;54534;43.612;1.572;2023-05-19T08:54:16;99442.81;;;18.29;48.30
67738;BME280;54534;43.612;1.572;2023-05-19T08:56:43;99431.34;;;18.28;48.55
67738;BME280;54534;43.612;1.572;2023-05-19T08:59:12;99437.47;;;18.29;48.37
67738;BME280;54534;43.612;1.572;2023-05-19T09:01:40;99429.63;;;18.27;48.37
67738;BME280;54534;43.612;1.572;2023-05-19T09:04:07;99423.34;;;18.28;48.57
67738;BME280;54534;43.612;1.572;2023-05-19T09:06:33;99425.16;;;18.28;48.32
67738;BME280;54534;43.612;1.572;2023-05-19T09:08:58;99421.50;;;18.29;48.21
67738;BME280;54534;43.612;1.572;2023-05-19T09:11:24;99428.66;;;18.28;48.55
67738;BME280;54534;43.612;1.572;2023-05-19T09:13:50;99430.47;;;18.28;48.24
67738;BME280;54534;43.612;1.572;2023-05-19T09:16:16;99434.94;;;18.27;48.61
67738;BME280;54534;43.612;1.572;2023-05-19T09:18:56;99426.00;;;18.28;48.32
67738;BME280;54534;43.612;1.572;2023-05-19T09:21:28;99420.69;;;18.28;48.47
67738;BME280;54534;43.612;1.572;2023-05-19T09:24:02;99421.63;;;18.27;48.63
67738;BME280;54534;43.612;1.572;2023-05-19T09:26:48;99426.97;;;18.27;48.24
67738;BME280;54534;43.612;1.572;2023-05-19T09:29:16;99427.09;;;18.26;48.29
67738;BME280;54534;43.612;1.572;2023-05-19T09:31:55;99432.28;;;18.27;48.44
67738;BME280;54534;43.612;1.572;2023-05-19T09:34:24;99426.09;;;18.27;48.31
67738;BME280;54534;43.612;1.572;2023-05-19T09:36:52;99423.44;;;18.27;48.26
67738;BME280;54534;43.612;1.572;2023-05-19T09:39:19;99421.63;;;18.27;48.02
67738;BME280;54534;43.612;1.572;2023-05-19T09:41:50;99418.13;;;18.27;48.22
67738;BME280;54534;43.612;1.572;2023-05-19T09:46:49;99418.97;;;18.27;48.44
67738;BME280;54534;43.612;1.572;2023-05-19T09:49:18;99414.75;;;18.25;48.52
67738;BME280;54534;43.612;1.572;2023-05-19T09:51:44;99414.75;;;18.25;48.08
67738;BME280;54534;43.612;1.572;2023-05-19T09:54:14;99409.28;;;18.26;48.23
67738;BME280;54534;43.612;1.572;2023-05-19T09:56:40;99417.28;;;18.26;48.10
67738;BME280;54534;43.612;1.572;2023-05-19T09:59:05;99419.09;;;18.26;47.97
67738;BME280;54534;43.612;1.572;2023-05-19T10:01:31;99413.78;;;18.26;48.30
67738;BME280;54534;43.612;1.572;2023-05-19T10:04:02;99417.28;;;18.26;48.38
67738;BME280;54534;43.612;1.572;2023-05-19T10:06:28;99411.94;;;18.26;48.33
67738;BME280;54534;43.612;1.572;2023-05-19T10:08:55;99408.47;;;18.26;48.55
67738;BME280;54534;43.612;1.572;2023-05-19T10:11:21;99406.63;;;18.26;48.01
67738;BME280;54534;43.612;1.572;2023-05-19T10:13:49;99394.28;;;18.25;48.23
67738;BME280;54534;43.612;1.572;2023-05-19T10:16:16;99389.69;;;18.27;48.04
67738;BME280;54534;43.612;1.572;2023-05-19T10:18:42;99391.50;;;18.27;48.12
67738;BME280;54534;43.612;1.572;2023-05-19T10:21:08;99386.31;;;18.25;48.09
67738;BME280;54534;43.612;1.572;2023-05-19T10:23:34;99388.97;;;18.25;48.03
67738;BME280;54534;43.612;1.572;2023-05-19T10:26:00;99384.50;;;18.26;47.98
67738;BME280;54534;43.612;1.572;2023-05-19T10:28:34;99383.66;;;18.25;48.43
67738;BME280;54534;43.612;1.572;2023-05-19T10:31:04;99389.84;;;18.26;48.23
67738;BME280;54534;43.612;1.572;2023-05-19T10:38:59;99402.28;;;18.25;48.05
67738;BME280;54534;43.612;1.572;2023-05-19T10:41:48;99406.63;;;18.26;48.04
67738;BME280;54534;43.612;1.572;2023-05-19T10:47:24;99396.81;;;18.27;48.38
67738;BME280;54534;43.612;1.572;2023-05-19T10:49:53;99390.66;;;18.26;48.55
67738;BME280;54534;43.612;1.572;2023-05-19T10:52:19;99396.81;;;18.27;48.29
67738;BME280;54534;43.612;1.572;2023-05-19T10:54:50;99397.69;;;18.27;48.59
67738;BME280;54534;43.612;1.572;2023-05-19T10:57:20;99387.03;;;18.27;48.28
67738;BME280;54534;43.612;1.572;2023-05-19T10:59:49;99396.72;;;18.28;48.57
67738;BME280;54534;43.612;1.572;2023-05-19T11:05:14;99397.56;;;18.29;48.29
67738;BME280;54534;43.612;1.572;2023-05-19T11:08:04;99390.41;;;18.29;48.46
67738;BME280;54534;43.612;1.572;2023-05-19T11:10:30;99389.56;;;18.29;48.81
67738;BME280;54534;43.612;1.572;2023-05-19T11:12:56;99392.22;;;18.29;48.54
67738;BME280;54534;43.612;1.572;2023-05-19T11:15:24;99392.13;;;18.30;48.73
67738;BME280;54534;43.612;1.572;2023-05-19T11:17:51;99389.47;;;18.30;48.37
67738;BME280;54534;43.612;1.572;2023-05-19T11:20:24;99391.28;;;18.30;48.69
67738;BME280;54534;43.612;1.572;2023-05-19T11:25:46;99392.13;;;18.30;48.56
67738;BME280;54534;43.612;1.572;2023-05-19T11:28:15;99388.63;;;18.30;48.47
67738;BME280;54534;43.612;1.572;2023-05-19T11:30:42;99385.97;;;18.30;48.19
67738;BME280;54534;43.612;1.572;2023-05-19T11:33:08;99380.63;;;18.30;48.35
67738;BME280;54534;43.612;1.572;2023-05-19T11:35:34;99375.31;;;18.30;48.20
67738;BME280;54534;43.612;1.572;2023-05-19T11:38:01;99377.84;;;18.31;48.75
67738;BME280;54534;43.612;1.572;2023-05-19T11:40:28;99379.69;;;18.31;47.86
67738;BME280;54534;43.612;1.572;2023-05-19T11:42:54;99387.75;;;18.29;47.67
67738;BME280;54534;43.612;1.572;2023-05-19T11:45:26;99381.72;;;18.27;47.42
67738;BME280;54534;43.612;1.572;2023-05-19T11:47:59;99382.94;;;18.23;47.07
67738;BME280;54534;43.612;1.572;2023-05-19T11:50:25;99379.59;;;18.19;47.23
67738;BME280;54534;43.612;1.572;2023-05-19T11:52:51;99375.25;;;18.18;47.50
67738;BME280;54534;43.612;1.572;2023-05-19T11:55:21;99376.31;;;18.16;47.29
67738;BME280;54534;43.612;1.572;2023-05-19T11:58:02;99374.66;;;18.15;47.21
67738;BME280;54534;43.612;1.572;2023-05-19T12:00:38;99375.59;;;18.14;47.28
67738;BME280;54534;43.612;1.572;2023-05-19T12:03:04;99371.25;;;18.12;47.36
67738;BME280;54534;43.612;1.572;2023-05-19T12:05:30;99377.53;;;18.11;47.05
67738;BME280;54534;43.612;1.572;2023-05-19T12:07:56;99366.16;;;18.09;47.23
67738;BME280;54534;43.612;1.572;2023-05-19T12:12:49;99359.97;;;18.09;47.64
67738;BME280;54534;43.612;1.572;2023-05-19T12:15:18;99358.28;;;18.08;47.32
67738;BME280;54534;43.612;1.572;2023-05-19T12:17:47;99356.59;;;18.07;47.42
67738;BME280;54534;43.612;1.572;2023-05-19T12:20:13;99351.28;;;18.07;47.28
67738;BME280;54534;43.612;1.572;2023-05-19T12:22:38;99363.72;;;18.06;47.69
67738;BME280;54534;43.612;1.572;2023-05-19T12:25:04;99357.56;;;18.06;47.61
67738;BME280;54534;43.612;1.572;2023-05-19T12:27:34;99362.03;;;18.05;47.40
67738;BME280;54534;43.612;1.572;2023-05-19T12:30:02;99377.97;;;18.05;47.34
67738;BME280;54534;43.612;1.572;2023-05-19T12:32:28;99367.59;;;18.02;46.71
67738;BME280;54534;43.612;1.572;2023-05-19T12:34:57;99366.97;;;17.98;46.88
67738;BME280;54534;43.612;1.572;2023-05-19T12:37:26;99359.94;;;17.97;47.58
67738;BME280;54534;43.612;1.572;2023-05-19T12:39:52;99362.50;;;17.99;47.86
67738;BME280;54534;43.612;1.572;2023-05-19T12:42:17;99363.31;;;17.99;47.68
67738;BME280;54534;43.612;1.572;2023-05-19T12:44:47;99351.50;;;18.04;47.94
67738;BME280;54534;43.612;1.572;2023-05-19T12:47:18;99348.72;;;18.05;48.04
67738;BME280;54534;43.612;1.572;2023-05-19T12:50:03;99358.19;;;18.09;48.04
67738;BME280;54534;43.612;1.572;2023-05-19T12:52:30;99354.53;;;18.10;48.29
67738;BME280;54534;43.612;1.572;2023-05-19T12:55:06;99355.28;;;18.12;48.17
67738;BME280;54534;43.612;1.572;2023-05-19T12:57:36;99348.13;;;18.13;48.39
67738;BME280;54534;43.612;1.572;2023-05-19T13:00:05;99352.38;;;18.16;48.22
67738;BME280;54534;43.612;1.572;2023-05-19T13:02:34;99344.28;;;18.17;48.04
67738;BME280;54534;43.612;1.572;2023-05-19T13:05:01;99342.47;;;18.18;48.23
67738;BME280;54534;43.612;1.572;2023-05-19T13:07:28;99338.84;;;18.19;48.28
67738;BME280;54534;43.612;1.572;2023-05-19T13:09:54;99337.88;;;18.20;48.38
67738;BME280;54534;43.612;1.572;2023-05-19T13:12:20;99334.25;;;18.21;48.14
67738;BME280;54534;43.612;1.572;2023-05-19T13:14:46;99334.25;;;18.21;48.33
67738;BME280;54534;43.612;1.572;2023-05-19T13:17:11;99336.84;;;18.22;48.20
67738;BME280;54534;43.612;1.572;2023-05-19T13:19:36;99327.03;;;18.23;48.36
67738;BME280;54534;43.612;1.572;2023-05-19T13:22:02;99330.41;;;18.25;48.08
67738;BME280;54534;43.612;1.572;2023-05-19T13:24:27;99325.94;;;18.26;48.08
67738;BME280;54534;43.612;1.572;2023-05-19T13:26:53;99343.59;;;18.27;47.85
67738;BME280;54534;43.612;1.572;2023-05-19T13:29:19;99333.81;;;18.27;48.18
67738;BME280;54534;43.612;1.572;2023-05-19T13:31:44;99334.53;;;18.29;48.23
67738;BME280;54534;43.612;1.572;2023-05-19T13:34:10;99335.50;;;18.28;48.26
67738;BME280;54534;43.612;1.572;2023-05-19T13:36:35;99332.72;;;18.30;48.12
67738;BME280;54534;43.612;1.572;2023-05-19T13:39:00;99330.91;;;18.30;48.31
67738;BME280;54534;43.612;1.572;2023-05-19T13:41:26;99322.06;;;18.30;48.38
67738;BME280;54534;43.612;1.572;2023-05-19T13:43:54;99322.78;;;18.32;48.07
67738;BME280;54534;43.612;1.572;2023-05-19T13:46:19;99324.50;;;18.33;48.26